Strona główna
METAR-TAF:

METAR-TAF

Lotnisko :

Troyes, Francja

Szerokość geograficzna: 48-20N, Długość geograficzna: 004-01E, wysokość: 118 m

Aktualna obserwacja pogody

Raport powstał 35 minut temu, godzina 10:30 UTC
Wiatr 13 kt od południowy zachód
Temperatura 9°C
Wilgotność 71%
Ciśnienie 1029 hPa
Widzialność 10 km lub więcej

METAR: LFQB 181030Z AUTO 23013KT 9999 FEW025/// 09/04 Q1029

czas: 12:05 (11:05 UTC)


TAF: brakujący

Obserwacja i prognoza pogody dla ponad 4000 lotnisk (raport METAR i TAF).

Dostępne stacje oznaczono żółtymi i czerwonymi punktami na mapie.

Najedź kursorem aby zobaczyć nazwę stacji.

Kliknij aby zobaczyć obserwacje i prognozy pogody.

Aby zmienić mapę: kliknij na zielony przycisk z czarnym krzyżykiem, aby powiększyć; na zielony przycisk z myślnikiem, aby pomniejszyć; na zielone strzałki, aby przejść do map sąsiednich.


METAR-TAF: